Time;durP1;ratioP1;P1;durP2;ratioP2;P2;SDS_P1;SDS_P2;PMS_P1;PMS_P2;Temp;Humidity;BMP_temperature;BMP_pressure;BME280_temperature;BME280_humidity;BME280_pressure;Samples;Min_cycle;Max_cycle;Signal;HPM_P1;HPM_P2
2024/02/14 00:00:24;;;;;;;49.47;45.57;;;5.30;88.30;;;;;;5034864;28;20645;-84
2024/02/14 00:02:50;;;;;;;46.27;43.13;;;5.30;88.30;;;;;;5034979;28;20200;-84
2024/02/14 00:05:16;;;;;;;26.03;24.03;;;5.30;88.30;;;;;;5035540;28;20165;-85
2024/02/14 00:07:42;;;;;;;25.53;23.43;;;5.30;88.30;;;;;;5034831;28;20195;-84
2024/02/14 00:10:08;;;;;;;25.37;23.37;;;5.30;88.40;;;;;;5016970;28;20255;-84
2024/02/14 00:12:34;;;;;;;25.03;23.13;;;5.30;88.50;;;;;;5035072;28;20633;-85
2024/02/14 00:15:01;;;;;;;26.37;24.17;;;5.30;88.50;;;;;;5034930;28;20215;-83
2024/02/14 00:17:26;;;;;;;25.07;22.63;;;5.20;88.60;;;;;;5034483;28;20220;-85
2024/02/14 00:19:52;;;;;;;26.03;23.70;;;5.20;88.60;;;;;;5016793;28;20204;-85
2024/02/14 00:22:17;;;;;;;25.73;23.50;;;5.20;88.70;;;;;;5016750;28;20200;-85
2024/02/14 00:24:43;;;;;;;25.67;23.40;;;5.20;88.70;;;;;;5034463;28;20169;-84
2024/02/14 00:27:08;;;;;;;25.33;23.13;;;5.20;88.70;;;;;;5016500;28;20185;-85
2024/02/14 00:29:34;;;;;;;26.30;23.73;;;5.10;88.70;;;;;;5034387;28;20181;-84
2024/02/14 00:32:00;;;;;;;24.53;22.40;;;5.20;88.80;;;;;;5034340;28;20216;-84
2024/02/14 00:34:26;;;;;;;24.20;22.27;;;5.10;88.70;;;;;;5034350;28;20173;-84
2024/02/14 00:36:51;;;;;;;24.43;22.43;;;5.20;88.70;;;;;;5034227;28;20764;-85
2024/02/14 00:39:17;;;;;;;24.37;22.43;;;5.20;88.70;;;;;;5016479;28;20200;-84
2024/02/14 00:41:42;;;;;;;25.37;23.33;;;5.20;88.50;;;;;;5033797;28;20181;-84
2024/02/14 00:44:08;;;;;;;24.77;22.60;;;5.20;88.40;;;;;;5016392;28;20208;-84
2024/02/14 00:46:33;;;;;;;23.93;22.13;;;5.20;88.40;;;;;;5034096;28;20177;-84
2024/02/14 00:48:59;;;;;;;28.33;22.10;;;5.20;88.40;;;;;;5016438;28;20184;-84
2024/02/14 00:51:25;;;;;;;24.13;21.97;;;5.20;88.30;;;;;;5034108;28;20176;-84
2024/02/14 00:53:51;;;;;;;24.63;22.23;;;5.20;88.30;;;;;;5034001;28;20177;-84
2024/02/14 00:56:17;;;;;;;23.50;21.77;;;5.20;88.30;;;;;;5033887;28;20173;-84
2024/02/14 00:58:43;;;;;;;23.30;21.33;;;5.20;88.40;;;;;;5033780;28;20192;-84
2024/02/14 01:01:08;;;;;;;23.73;21.73;;;5.30;88.40;;;;;;5033921;28;20180;-84
2024/02/14 01:03:34;;;;;;;23.73;21.97;;;5.30;88.30;;;;;;5016039;28;20297;-85
2024/02/14 01:06:00;;;;;;;23.50;21.60;;;5.30;88.30;;;;;;5034103;28;20179;-84
2024/02/14 01:08:25;;;;;;;21.63;19.73;;;5.30;88.30;;;;;;5015948;28;20189;-84
2024/02/14 01:10:51;;;;;;;21.40;19.77;;;5.30;88.50;;;;;;5033664;28;20184;-84
2024/02/14 01:13:18;;;;;;;22.60;20.23;;;5.30;88.60;;;;;;5033928;28;20636;-84
2024/02/14 01:15:43;;;;;;;21.67;20.07;;;5.30;88.80;;;;;;5033543;28;20219;-83
2024/02/14 01:18:10;;;;;;;20.93;19.23;;;5.30;89.00;;;;;;5033474;28;20196;-84
2024/02/14 01:20:35;;;;;;;21.43;19.57;;;5.30;89.20;;;;;;5033695;28;20172;-84
2024/02/14 01:23:01;;;;;;;21.60;19.80;;;5.30;89.40;;;;;;5033483;28;20192;-84
2024/02/14 01:25:26;;;;;;;20.87;19.13;;;5.30;89.60;;;;;;5033499;28;20176;-84
2024/02/14 01:27:55;;;;;;;20.30;18.67;;;5.30;89.90;;;;;;5033323;28;20197;-84
2024/02/14 01:30:20;;;;;;;20.10;18.27;;;5.20;90.10;;;;;;5015663;28;20655;-85
2024/02/14 01:32:46;;;;;;;18.97;17.50;;;5.30;90.30;;;;;;5033441;28;20173;-84
2024/02/14 01:35:12;;;;;;;19.17;17.43;;;5.30;90.50;;;;;;5015635;28;20263;-84
2024/02/14 01:37:38;;;;;;;20.77;19.23;;;5.30;90.60;;;;;;5033346;28;20221;-84
2024/02/14 01:40:04;;;;;;;20.10;18.50;;;5.20;90.80;;;;;;5015389;28;20215;-85
2024/02/14 01:42:30;;;;;;;19.37;17.77;;;5.20;91.00;;;;;;5015475;28;20204;-84
2024/02/14 01:44:56;;;;;;;19.77;17.70;;;5.20;91.20;;;;;;5033345;28;20615;-84
2024/02/14 01:47:21;;;;;;;19.03;17.47;;;5.20;91.30;;;;;;5033058;28;20212;-84
2024/02/14 01:49:47;;;;;;;19.13;17.47;;;5.20;91.50;;;;;;5015456;28;20177;-85
2024/02/14 01:52:13;;;;;;;19.60;17.90;;;5.20;91.60;;;;;;5015208;28;20267;-84
2024/02/14 01:54:39;;;;;;;18.30;16.77;;;5.20;91.80;;;;;;5015137;28;20647;-85
2024/02/14 01:57:05;;;;;;;19.70;17.60;;;5.20;91.90;;;;;;5032954;28;20169;-84
2024/02/14 01:59:34;;;;;;;18.20;16.50;;;5.20;92.00;;;;;;5033065;28;20173;-85
2024/02/14 02:02:00;;;;;;;17.43;15.97;;;5.20;92.10;;;;;;5032980;28;20183;-85
2024/02/14 02:04:25;;;;;;;17.77;16.30;;;5.20;92.30;;;;;;5015139;28;20658;-85
2024/02/14 02:06:56;;;;;;;17.00;15.77;;;5.20;92.40;;;;;;5015410;28;20176;-85
2024/02/14 02:09:22;;;;;;;17.70;16.20;;;5.20;92.50;;;;;;5015572;28;20193;-85
2024/02/14 02:11:55;;;;;;;16.73;15.37;;;5.20;92.60;;;;;;5015318;28;20180;-85
2024/02/14 02:14:22;;;;;;;16.53;15.23;;;5.20;92.70;;;;;;5032935;28;20153;-85
2024/02/14 02:16:48;;;;;;;17.40;15.90;;;5.20;92.80;;;;;;5033255;28;20672;-85
2024/02/14 02:19:15;;;;;;;18.20;16.50;;;5.20;92.80;;;;;;5032774;28;20193;-85
2024/02/14 02:21:46;;;;;;;17.27;15.77;;;5.20;92.90;;;;;;5033216;28;20165;-85
2024/02/14 02:24:12;;;;;;;18.40;16.47;;;5.20;93.00;;;;;;5032913;28;20185;-84
2024/02/14 02:26:37;;;;;;;16.70;15.37;;;5.20;93.10;;;;;;5033102;28;20218;-85
2024/02/14 02:29:04;;;;;;;17.40;15.80;;;5.20;93.20;;;;;;5032846;28;20669;-84
2024/02/14 02:31:30;;;;;;;18.07;16.47;;;5.20;93.30;;;;;;5032973;28;20196;-85
2024/02/14 02:33:56;;;;;;;27.97;25.60;;;5.20;93.30;;;;;;5032777;28;20222;-85
2024/02/14 02:36:23;;;;;;;28.13;25.73;;;5.20;93.40;;;;;;5015081;28;20176;-85
2024/02/14 02:38:49;;;;;;;26.63;24.73;;;5.20;93.50;;;;;;5015220;28;20231;-85
2024/02/14 02:41:15;;;;;;;27.23;25.23;;;5.20;93.50;;;;;;5032861;28;20172;-84
2024/02/14 02:43:41;;;;;;;25.20;23.27;;;5.20;93.60;;;;;;5015120;28;20206;-85
2024/02/14 02:46:09;;;;;;;27.80;25.70;;;5.20;93.60;;;;;;5032648;28;20275;-84
2024/02/14 02:48:36;;;;;;;26.97;24.97;;;5.30;93.60;;;;;;5032621;28;20199;-85
2024/02/14 02:51:01;;;;;;;29.20;26.90;;;5.20;93.60;;;;;;5032701;28;20169;-85
2024/02/14 02:53:27;;;;;;;29.13;26.50;;;5.30;93.70;;;;;;5014930;28;20195;-84
2024/02/14 02:55:54;;;;;;;29.47;27.37;;;5.30;93.70;;;;;;5014916;28;20279;-85
2024/02/14 02:58:21;;;;;;;27.60;25.50;;;5.30;93.80;;;;;;5014819;28;20204;-85
2024/02/14 03:00:49;;;;;;;27.27;25.37;;;5.30;93.80;;;;;;5015698;28;20199;-85
2024/02/14 03:03:15;;;;;;;28.60;26.27;;;5.30;93.80;;;;;;5033624;28;20212;-85
2024/02/14 03:05:41;;;;;;;18.07;16.40;;;5.50;93.90;;;;;;5037125;28;20149;-85
2024/02/14 03:08:08;;;;;;;17.60;15.90;;;5.50;93.90;;;;;;5036831;28;20196;-85
2024/02/14 03:10:33;;;;;;;17.73;16.27;;;5.50;93.80;;;;;;5036989;28;20169;-85
2024/02/14 03:12:58;;;;;;;18.33;16.93;;;5.40;93.80;;;;;;5036783;28;20173;-85
2024/02/14 03:15:25;;;;;;;17.83;16.50;;;5.50;93.80;;;;;;5019131;28;20191;-84
2024/02/14 03:17:51;;;;;;;18.97;17.27;;;5.60;93.70;;;;;;5037034;28;20191;-84
2024/02/14 03:20:16;;;;;;;18.67;17.17;;;5.40;93.60;;;;;;5036932;28;20259;-84
2024/02/14 03:22:44;;;;;;;20.00;18.00;;;5.50;93.70;;;;;;5036839;28;20211;-84
2024/02/14 03:25:13;;;;;;;18.47;16.87;;;5.30;93.60;;;;;;5018731;28;20169;-86
2024/02/14 03:27:39;;;;;;;19.27;17.10;;;5.50;93.80;;;;;;5036860;28;20276;-86
2024/02/14 03:30:06;;;;;;;18.33;16.90;;;5.50;93.80;;;;;;5036675;28;20196;-84
2024/02/14 03:32:31;;;;;;;20.33;18.27;;;5.40;93.70;;;;;;5037071;28;20548;-84
2024/02/14 03:34:57;;;;;;;20.00;17.97;;;5.40;93.80;;;;;;5037027;28;20169;-84
2024/02/14 03:37:23;;;;;;;18.60;16.90;;;5.60;93.80;;;;;;5036742;28;20231;-84
2024/02/14 03:39:48;;;;;;;17.40;15.80;;;5.40;93.70;;;;;;5036800;28;20176;-84
2024/02/14 03:42:15;;;;;;;17.93;16.43;;;5.40;93.80;;;;;;5037348;28;20248;-86
2024/02/14 03:44:41;;;;;;;17.90;16.60;;;5.40;93.80;;;;;;5019277;28;20176;-84
2024/02/14 03:47:06;;;;;;;17.97;16.27;;;5.40;93.90;;;;;;5037161;28;20184;-84
2024/02/14 03:49:32;;;;;;;17.20;15.80;;;5.40;93.80;;;;;;5019253;28;20706;-85
2024/02/14 03:51:57;;;;;;;17.53;16.20;;;5.40;93.80;;;;;;5018717;28;20711;-85
2024/02/14 03:54:23;;;;;;;17.50;15.97;;;5.40;93.90;;;;;;5036825;28;20177;-85
2024/02/14 03:56:49;;;;;;;16.07;14.93;;;5.40;93.90;;;;;;5037102;28;20177;-87
2024/02/14 03:59:14;;;;;;;17.13;15.83;;;5.40;93.90;;;;;;5037039;28;20235;-85
2024/02/14 04:01:45;;;;;;;19.73;17.73;;;5.40;93.90;;;;;;5019187;28;20183;-85
2024/02/14 04:04:10;;;;;;;17.50;16.10;;;5.40;93.90;;;;;;5036187;28;20204;-85
2024/02/14 04:06:36;;;;;;;18.57;16.90;;;5.50;94.00;;;;;;5036781;28;20530;-87
2024/02/14 04:09:01;;;;;;;17.53;16.07;;;5.40;93.90;;;;;;5036810;28;20227;-86
2024/02/14 04:11:27;;;;;;;17.93;16.10;;;5.40;93.90;;;;;;5037052;28;20181;-85
2024/02/14 04:13:53;;;;;;;18.17;16.67;;;5.30;94.00;;;;;;5036978;28;20667;-85
2024/02/14 04:16:21;;;;;;;16.60;15.30;;;5.30;94.10;;;;;;5035553;28;20172;-85
2024/02/14 04:18:47;;;;;;;17.23;15.53;;;5.30;94.20;;;;;;5018457;28;20291;-86
2024/02/14 04:21:12;;;;;;;17.17;15.77;;;5.40;94.30;;;;;;5018817;28;20220;-85
2024/02/14 04:23:39;;;;;;;17.20;15.53;;;5.30;94.30;;;;;;5018216;28;20204;-85
2024/02/14 04:26:04;;;;;;;17.50;15.90;;;5.50;94.40;;;;;;5035943;28;20175;-85
2024/02/14 04:28:30;;;;;;;17.63;15.87;;;5.50;94.50;;;;;;5035998;28;20275;-85
2024/02/14 04:30:56;;;;;;;18.27;15.67;;;5.50;94.50;;;;;;5036235;28;20264;-86
2024/02/14 04:33:22;;;;;;;18.10;16.20;;;5.40;94.40;;;;;;5036515;28;20177;-85
2024/02/14 04:35:47;;;;;;;18.33;16.73;;;5.40;94.40;;;;;;5036386;28;20187;-85
2024/02/14 04:38:13;;;;;;;17.70;16.20;;;5.40;94.50;;;;;;5036316;28;20207;-85
2024/02/14 04:40:39;;;;;;;18.83;16.93;;;5.50;94.50;;;;;;5036271;28;20184;-85
2024/02/14 04:43:05;;;;;;;19.60;17.70;;;5.40;94.50;;;;;;5018310;28;20680;-84
2024/02/14 04:45:30;;;;;;;18.20;16.50;;;5.40;94.60;;;;;;5018092;28;20177;-82
2024/02/14 04:47:56;;;;;;;17.83;16.33;;;5.50;94.70;;;;;;5018142;28;20215;-84
2024/02/14 04:50:21;;;;;;;16.70;15.00;;;5.40;94.60;;;;;;5017986;28;20176;-85
2024/02/14 04:52:47;;;;;;;16.90;15.20;;;5.50;94.60;;;;;;5036130;28;20180;-85
2024/02/14 04:55:12;;;;;;;18.07;15.00;;;5.40;94.70;;;;;;5035929;28;20656;-84
2024/02/14 04:57:38;;;;;;;16.77;15.17;;;5.40;94.80;;;;;;5035912;28;20200;-84
2024/02/14 05:00:05;;;;;;;16.90;15.10;;;5.30;94.80;;;;;;5017751;28;20367;-85
2024/02/14 05:02:31;;;;;;;16.20;14.77;;;5.30;94.90;;;;;;5017599;28;20209;-85
2024/02/14 05:04:56;;;;;;;16.23;14.60;;;5.40;94.90;;;;;;5035386;28;20242;-84
2024/02/14 05:07:22;;;;;;;16.27;14.67;;;5.40;95.00;;;;;;5035739;28;20266;-84
2024/02/14 05:09:51;;;;;;;16.00;14.33;;;5.40;95.00;;;;;;5036534;28;20719;-85
2024/02/14 05:12:16;;;;;;;15.87;14.23;;;5.40;95.00;;;;;;5036073;28;20640;-84
2024/02/14 05:14:42;;;;;;;15.10;13.63;;;5.40;95.00;;;;;;5035719;28;20177;-85
2024/02/14 05:17:08;;;;;;;16.10;14.53;;;5.40;95.10;;;;;;5036029;28;20173;-85
2024/02/14 05:19:33;;;;;;;15.67;14.07;;;5.50;95.20;;;;;;5035838;28;20169;-84
2024/02/14 05:21:59;;;;;;;16.17;14.67;;;5.60;95.20;;;;;;5035201;28;20177;-85
2024/02/14 05:24:27;;;;;;;16.43;14.77;;;5.50;95.10;;;;;;5035254;28;20201;-85
2024/02/14 05:26:53;;;;;;;15.73;14.37;;;5.60;95.20;;;;;;5035368;28;20252;-87
2024/02/14 05:29:20;;;;;;;16.83;15.43;;;5.50;95.20;;;;;;5035077;28;20274;-86
2024/02/14 05:31:47;;;;;;;17.40;15.83;;;5.50;95.10;;;;;;5017419;28;20177;-86
2024/02/14 05:34:13;;;;;;;26.67;24.27;;;5.40;95.10;;;;;;5034990;28;20176;-85
2024/02/14 05:36:38;;;;;;;25.27;23.47;;;5.40;95.10;;;;;;5017666;28;20203;-84
2024/02/14 05:39:07;;;;;;;25.63;23.33;;;5.50;95.20;;;;;;5017315;28;20581;-85
2024/02/14 05:41:34;;;;;;;27.17;24.67;;;5.60;95.20;;;;;;5035131;28;20192;-86
2024/02/14 05:44:00;;;;;;;25.20;23.30;;;5.60;95.30;;;;;;5034702;28;20192;-85
2024/02/14 05:46:25;;;;;;;25.90;24.10;;;5.60;95.20;;;;;;5017176;28;20184;-85
2024/02/14 05:48:52;;;;;;;24.63;22.83;;;5.50;95.20;;;;;;5034914;28;20192;-85
2024/02/14 05:51:18;;;;;;;25.90;23.80;;;5.50;95.20;;;;;;5016876;28;20177;-85
2024/02/14 05:53:43;;;;;;;25.73;23.53;;;5.50;95.30;;;;;;5034875;28;20188;-85
2024/02/14 05:56:09;;;;;;;24.30;22.00;;;5.50;95.30;;;;;;5034377;28;20187;-87
2024/02/14 05:58:35;;;;;;;25.40;23.40;;;5.60;95.40;;;;;;5034826;28;20193;-85
2024/02/14 06:01:01;;;;;;;23.83;21.93;;;5.60;95.30;;;;;;5016719;28;20563;-87
2024/02/14 06:03:27;;;;;;;25.33;23.17;;;5.50;95.40;;;;;;5034762;28;20221;-85
2024/02/14 06:05:53;;;;;;;24.50;22.50;;;5.60;95.40;;;;;;5035244;28;20656;-84
2024/02/14 06:08:19;;;;;;;18.87;14.60;;;5.60;95.40;;;;;;5034867;28;20223;-85
2024/02/14 06:10:44;;;;;;;15.23;13.93;;;5.60;95.50;;;;;;5034774;28;20599;-85
2024/02/14 06:13:10;;;;;;;16.60;15.10;;;5.60;95.50;;;;;;5035200;28;20183;-85
2024/02/14 06:15:35;;;;;;;16.10;14.50;;;5.70;95.50;;;;;;5035147;28;20716;-85
2024/02/14 06:18:01;;;;;;;15.43;13.90;;;5.70;95.50;;;;;;5016602;28;20200;-87
2024/02/14 06:20:26;;;;;;;15.90;14.47;;;5.70;95.60;;;;;;5017505;28;20212;-85
2024/02/14 06:22:52;;;;;;;16.03;14.53;;;5.70;95.60;;;;;;5016660;28;20243;-84
2024/02/14 06:25:18;;;;;;;16.00;14.50;;;5.70;95.60;;;;;;5034819;28;20256;-84
2024/02/14 06:27:43;;;;;;;16.13;14.57;;;5.70;95.60;;;;;;5034435;28;20681;-84
2024/02/14 06:30:09;;;;;;;16.60;15.00;;;5.70;95.60;;;;;;5016551;28;20177;-86
2024/02/14 06:32:35;;;;;;;17.13;15.47;;;5.70;95.70;;;;;;5035628;28;20180;-88
2024/02/14 06:35:02;;;;;;;17.50;15.80;;;5.70;95.70;;;;;;5034574;28;20547;-84
2024/02/14 06:37:27;;;;;;;18.60;17.00;;;5.70;95.70;;;;;;5033273;28;20506;-84
2024/02/14 06:39:53;;;;;;;17.97;16.17;;;5.80;95.70;;;;;;5036570;28;20220;-85
2024/02/14 06:42:19;;;;;;;17.40;15.77;;;5.80;95.70;;;;;;5038389;28;20185;-85
2024/02/14 06:44:45;;;;;;;17.30;15.80;;;5.80;95.70;;;;;;5038424;28;20196;-84
2024/02/14 06:47:11;;;;;;;17.97;16.03;;;5.80;95.70;;;;;;5038275;28;20542;-84
2024/02/14 06:49:36;;;;;;;17.77;16.13;;;5.80;95.80;;;;;;5038166;28;20645;-84
2024/02/14 06:52:02;;;;;;;17.87;16.20;;;5.80;95.80;;;;;;5037961;28;20175;-84
2024/02/14 06:54:27;;;;;;;19.30;17.40;;;5.80;95.80;;;;;;5037614;28;20177;-84
2024/02/14 06:56:53;;;;;;;17.20;15.70;;;5.90;95.90;;;;;;5020037;28;20173;-85
2024/02/14 06:59:18;;;;;;;16.80;15.33;;;5.80;95.80;;;;;;5038280;28;20196;-87
2024/02/14 07:01:44;;;;;;;16.77;15.13;;;5.90;95.80;;;;;;5038229;28;20180;-85
2024/02/14 07:04:10;;;;;;;19.43;15.70;;;5.90;95.80;;;;;;5037583;28;20216;-84
2024/02/14 07:06:35;;;;;;;16.17;14.87;;;5.90;95.90;;;;;;5037658;28;20195;-85
2024/02/14 07:09:01;;;;;;;16.23;14.40;;;5.90;95.90;;;;;;5038034;28;20196;-85
2024/02/14 07:11:26;;;;;;;17.67;15.87;;;5.90;95.90;;;;;;5038288;28;20173;-84
2024/02/14 07:13:52;;;;;;;15.47;14.10;;;6.00;96.00;;;;;;5019748;28;20184;-84
2024/02/14 07:16:17;;;;;;;15.30;13.93;;;5.90;96.00;;;;;;5019930;28;20177;-84
2024/02/14 07:18:43;;;;;;;15.77;14.37;;;5.90;96.00;;;;;;5037636;28;20246;-84
2024/02/14 07:21:09;;;;;;;16.57;14.87;;;6.00;96.00;;;;;;5037776;28;20203;-84
2024/02/14 07:23:35;;;;;;;16.33;14.63;;;6.00;96.00;;;;;;5037604;28;20676;-86
2024/02/14 07:26:01;;;;;;;17.97;14.93;;;6.00;96.10;;;;;;5037492;28;20177;-84
2024/02/14 07:28:27;;;;;;;16.77;15.20;;;6.00;96.10;;;;;;5019664;28;20199;-85
2024/02/14 07:30:52;;;;;;;18.03;15.60;;;6.00;96.10;;;;;;5039073;28;20177;-86
2024/02/14 07:33:18;;;;;;;16.60;15.10;;;6.10;96.10;;;;;;5038306;28;20668;-84
2024/02/14 07:35:43;;;;;;;16.57;14.77;;;6.10;96.10;;;;;;5037541;28;20633;-84
2024/02/14 07:38:09;;;;;;;16.50;14.90;;;6.10;96.10;;;;;;5037515;28;20207;-84
2024/02/14 07:40:35;;;;;;;15.53;14.03;;;6.10;96.10;;;;;;5037140;28;20668;-84
2024/02/14 07:43:00;;;;;;;17.67;15.90;;;6.20;96.20;;;;;;5039454;28;20273;-86
2024/02/14 07:45:26;;;;;;;17.23;15.63;;;6.20;96.20;;;;;;5019329;28;20246;-86
2024/02/14 07:47:52;;;;;;;16.87;15.07;;;6.20;96.20;;;;;;5038591;28;20200;-85
2024/02/14 07:50:18;;;;;;;21.43;16.20;;;6.20;96.20;;;;;;5020690;28;20732;-85
2024/02/14 07:52:44;;;;;;;16.67;15.07;;;6.20;96.30;;;;;;5020107;28;20553;-86
2024/02/14 07:55:13;;;;;;;16.60;14.90;;;6.30;96.20;;;;;;5037265;28;20218;-84
2024/02/14 07:57:41;;;;;;;16.60;14.83;;;6.30;96.20;;;;;;5036783;28;20568;-84
2024/02/14 08:00:08;;;;;;;17.83;15.40;;;6.20;96.30;;;;;;5037399;28;20546;-86
2024/02/14 08:02:34;;;;;;;17.43;15.83;;;6.30;96.30;;;;;;5037069;28;20184;-84
2024/02/14 08:05:00;;;;;;;18.43;16.43;;;6.30;96.30;;;;;;5036632;28;20184;-84
2024/02/14 08:07:26;;;;;;;17.23;15.33;;;6.30;96.30;;;;;;5018624;28;20239;-86
2024/02/14 08:09:51;;;;;;;17.73;15.77;;;6.30;96.30;;;;;;5037193;28;20165;-84
2024/02/14 08:12:17;;;;;;;16.53;14.67;;;6.30;96.30;;;;;;5037475;28;20236;-84
2024/02/14 08:14:42;;;;;;;16.10;14.50;;;6.40;96.30;;;;;;5036522;28;20623;-86
2024/02/14 08:17:08;;;;;;;16.67;15.03;;;6.40;96.40;;;;;;5036301;28;20261;-86
2024/02/14 08:19:34;;;;;;;17.10;15.37;;;6.50;96.40;;;;;;5037326;28;20169;-85
2024/02/14 08:22:01;;;;;;;15.57;14.03;;;6.40;96.40;;;;;;5036651;28;20169;-85
2024/02/14 08:24:27;;;;;;;15.80;14.23;;;6.50;96.40;;;;;;5036635;28;20280;-84
2024/02/14 08:26:53;;;;;;;16.53;14.97;;;6.50;96.40;;;;;;5036955;28;20259;-86
2024/02/14 08:29:18;;;;;;;16.23;14.53;;;6.50;96.40;;;;;;5018906;28;20195;-85
2024/02/14 08:31:44;;;;;;;16.77;14.97;;;6.60;96.50;;;;;;5037257;28;20625;-87
2024/02/14 08:34:09;;;;;;;15.77;14.17;;;6.60;96.50;;;;;;5036814;28;20276;-87
2024/02/14 08:36:40;;;;;;;16.30;14.50;;;6.60;96.50;;;;;;5037820;28;20553;-86
2024/02/14 08:39:07;;;;;;;17.60;14.93;;;6.60;96.50;;;;;;5037553;28;20188;-86
2024/02/14 08:41:33;;;;;;;19.10;17.20;;;6.70;96.50;;;;;;5036454;28;20169;-87
2024/02/14 08:43:59;;;;;;;19.73;18.03;;;6.70;96.50;;;;;;5036745;28;20227;-87
2024/02/14 08:46:25;;;;;;;20.07;18.07;;;6.70;96.60;;;;;;5036775;28;20165;-85
2024/02/14 08:48:51;;;;;;;19.03;17.23;;;6.70;96.60;;;;;;5019699;28;20200;-85
2024/02/14 08:51:20;;;;;;;20.17;18.23;;;6.70;96.60;;;;;;5018639;28;20181;-85
2024/02/14 08:53:45;;;;;;;21.10;19.10;;;6.80;96.60;;;;;;5035898;28;20238;-86
2024/02/14 08:56:11;;;;;;;20.67;18.83;;;6.80;96.60;;;;;;5037215;28;20653;-86
2024/02/14 08:58:37;;;;;;;18.97;17.07;;;6.80;96.60;;;;;;5037229;28;20204;-86
2024/02/14 09:01:02;;;;;;;19.80;17.97;;;6.90;96.60;;;;;;5037420;28;20223;-86
2024/02/14 09:03:28;;;;;;;20.57;18.57;;;6.90;96.70;;;;;;5036274;28;20208;-85
2024/02/14 09:05:53;;;;;;;20.07;18.23;;;6.90;96.70;;;;;;5036371;28;20663;-85
2024/02/14 09:08:20;;;;;;;19.60;17.63;;;7.00;96.70;;;;;;5036752;28;20243;-87
2024/02/14 09:10:46;;;;;;;19.10;17.23;;;7.00;96.70;;;;;;5036185;28;20172;-86
2024/02/14 09:13:11;;;;;;;19.13;17.30;;;7.10;96.80;;;;;;5018787;28;20172;-85
2024/02/14 09:15:37;;;;;;;18.60;16.83;;;7.10;96.80;;;;;;5036684;28;20173;-85
2024/02/14 09:18:05;;;;;;;17.97;16.30;;;7.20;96.80;;;;;;5036934;28;20242;-87
2024/02/14 09:20:31;;;;;;;18.00;16.40;;;7.20;96.80;;;;;;5018784;28;20187;-85
2024/02/14 09:22:58;;;;;;;18.63;16.83;;;7.20;96.90;;;;;;5036151;28;20571;-86
2024/02/14 09:25:25;;;;;;;18.07;16.27;;;7.30;96.90;;;;;;5019240;28;20183;-87
2024/02/14 09:27:50;;;;;;;18.20;16.30;;;7.30;96.90;;;;;;5037135;28;20196;-85
2024/02/14 09:30:17;;;;;;;17.23;15.63;;;7.40;97.00;;;;;;5036494;28;20165;-87
2024/02/14 09:32:44;;;;;;;16.70;15.13;;;7.50;97.00;;;;;;5036717;28;20172;-87
2024/02/14 09:35:10;;;;;;;15.50;13.90;;;7.60;97.00;;;;;;5036788;28;20168;-87
2024/02/14 09:37:37;;;;;;;14.20;12.80;;;7.60;97.00;;;;;;5036576;28;20252;-87
2024/02/14 09:40:04;;;;;;;16.67;15.00;;;7.70;97.10;;;;;;5019153;28;20191;-87
2024/02/14 09:42:51;;;;;;;16.07;14.40;;;7.70;97.10;;;;;;5036764;28;20231;-86
2024/02/14 09:45:18;;;;;;;17.13;15.30;;;7.70;97.10;;;;;;5020226;28;20168;-88
2024/02/14 09:47:45;;;;;;;19.37;15.47;;;7.70;97.10;;;;;;5020590;28;20197;-85
2024/02/14 09:50:12;;;;;;;15.73;14.13;;;7.80;97.20;;;;;;5037785;28;20540;-86
2024/02/14 09:52:38;;;;;;;15.80;14.20;;;7.80;97.20;;;;;;5037453;28;20161;-86
2024/02/14 09:55:06;;;;;;;16.27;14.60;;;7.80;97.20;;;;;;5036840;28;20306;-87
2024/02/14 09:57:32;;;;;;;15.67;14.00;;;7.90;97.20;;;;;;5036273;28;20199;-87
2024/02/14 10:00:00;;;;;;;18.10;14.50;;;8.00;97.20;;;;;;5035723;28;20173;-85
2024/02/14 10:02:25;;;;;;;16.33;13.97;;;8.00;97.20;;;;;;5018055;28;20184;-87
2024/02/14 10:04:51;;;;;;;16.00;13.87;;;8.10;97.20;;;;;;5037240;28;20180;-88
2024/02/14 10:07:16;;;;;;;15.43;13.83;;;8.20;97.30;;;;;;5022390;28;20176;-88
2024/02/14 10:09:43;;;;;;;14.37;12.83;;;8.20;97.30;;;;;;5040311;28;20264;-88
2024/02/14 10:12:09;;;;;;;14.53;13.03;;;8.30;97.30;;;;;;5041501;28;20172;-88
2024/02/14 10:14:36;;;;;;;14.97;13.40;;;8.40;97.30;;;;;;5020216;28;20226;-84
2024/02/14 10:17:03;;;;;;;14.93;13.13;;;8.40;97.30;;;;;;5037633;28;20168;-85
2024/02/14 10:19:29;;;;;;;13.33;11.97;;;8.50;97.30;;;;;;5037800;28;20549;-85
2024/02/14 10:21:58;;;;;;;12.33;11.03;;;8.50;97.30;;;;;;5019983;28;20176;-84
2024/02/14 10:24:28;;;;;;;14.03;12.53;;;8.60;97.40;;;;;;5037675;28;20195;-85
2024/02/14 10:26:57;;;;;;;12.87;11.50;;;8.70;97.40;;;;;;5038085;28;20195;-88
2024/02/14 10:29:23;;;;;;;13.07;11.60;;;8.70;97.40;;;;;;5020839;28;20208;-87
2024/02/14 10:31:49;;;;;;;13.30;11.90;;;8.80;97.40;;;;;;5020973;28;20173;-87
2024/02/14 10:34:14;;;;;;;14.23;12.70;;;8.80;97.40;;;;;;5038084;28;20663;-85
2024/02/14 10:36:45;;;;;;;12.93;11.37;;;8.80;97.40;;;;;;5020369;28;20188;-88
2024/02/14 10:39:12;;;;;;;15.50;12.93;;;8.80;97.40;;;;;;5020064;28;20207;-84
2024/02/14 10:41:37;;;;;;;13.67;11.60;;;8.90;97.40;;;;;;5037446;28;20207;-84
2024/02/14 10:44:07;;;;;;;13.63;11.50;;;8.90;97.40;;;;;;5037358;28;20683;-85
2024/02/14 10:46:36;;;;;;;13.17;11.63;;;9.00;97.40;;;;;;5020363;28;20230;-86
2024/02/14 10:49:04;;;;;;;13.33;10.03;;;9.00;97.40;;;;;;5019599;28;20192;-85
2024/02/14 10:51:35;;;;;;;13.53;12.03;;;9.10;97.40;;;;;;5037417;28;20161;-84
2024/02/14 10:54:19;;;;;;;11.63;10.43;;;9.10;97.40;;;;;;5036833;28;20177;-84
2024/02/14 10:56:52;;;;;;;12.33;10.03;;;9.10;97.40;;;;;;5037116;28;20168;-85
2024/02/14 10:59:21;;;;;;;12.70;10.97;;;9.20;97.40;;;;;;5036892;28;20222;-85
2024/02/14 11:01:47;;;;;;;14.37;10.80;;;9.20;97.40;;;;;;5036813;28;20200;-85
2024/02/14 11:04:13;;;;;;;12.73;11.10;;;9.30;97.40;;;;;;5036533;28;20236;-85
2024/02/14 11:06:54;;;;;;;12.80;10.60;;;9.30;97.40;;;;;;5018911;28;20173;-84
2024/02/14 11:09:19;;;;;;;12.27;10.63;;;9.30;97.40;;;;;;5036906;28;20698;-85
2024/02/14 11:11:46;;;;;;;14.77;11.07;;;9.30;97.40;;;;;;5036730;28;20180;-84
2024/02/14 11:14:19;;;;;;;11.27;10.00;;;9.40;97.40;;;;;;5019153;28;20199;-85
2024/02/14 11:16:47;;;;;;;16.50;9.90;;;9.40;97.40;;;;;;5036606;28;20189;-85
2024/02/14 11:19:16;;;;;;;11.50;10.10;;;9.40;97.40;;;;;;5018686;28;20589;-85
2024/02/14 11:21:46;;;;;;;12.50;9.93;;;9.50;97.40;;;;;;5036519;28;20201;-84
2024/02/14 11:24:14;;;;;;;12.47;10.37;;;9.60;97.40;;;;;;5036609;28;20184;-85
2024/02/14 11:26:51;;;;;;;12.30;10.37;;;9.60;97.40;;;;;;5036248;28;20172;-85
2024/02/14 11:29:17;;;;;;;11.90;9.67;;;9.60;97.40;;;;;;5036303;28;20184;-85
2024/02/14 11:31:47;;;;;;;14.33;10.27;;;9.70;97.50;;;;;;5018612;28;20181;-85
2024/02/14 11:34:14;;;;;;;11.33;9.10;;;9.70;97.50;;;;;;5036436;28;20157;-85
2024/02/14 11:36:43;;;;;;;12.13;10.60;;;9.80;97.50;;;;;;5036615;28;20206;-85
2024/02/14 11:39:09;;;;;;;12.50;9.50;;;9.80;97.50;;;;;;5036476;28;20192;-86
2024/02/14 11:41:34;;;;;;;10.67;9.10;;;9.80;97.50;;;;;;5036416;28;20525;-84
2024/02/14 11:44:04;;;;;;;13.33;9.17;;;9.80;97.50;;;;;;5036631;28;20303;-84
2024/02/14 11:46:34;;;;;;;8.97;8.07;;;9.90;97.50;;;;;;5018297;28;20173;-85
2024/02/14 11:49:04;;;;;;;10.57;8.97;;;9.90;97.40;;;;;;5036078;28;20201;-85
2024/02/14 11:51:30;;;;;;;9.20;8.13;;;10.00;97.40;;;;;;5036251;28;20541;-85
2024/02/14 11:54:06;;;;;;;10.93;8.00;;;10.00;97.40;;;;;;5018129;28;20613;-85
2024/02/14 11:56:37;;;;;;;9.63;8.67;;;10.00;97.40;;;;;;5035941;28;20219;-85
2024/02/14 11:59:04;;;;;;;9.07;7.03;;;10.00;97.40;;;;;;5018242;28;20259;-85
2024/02/14 12:01:37;;;;;;;8.83;6.80;;;10.10;97.40;;;;;;5035654;28;20223;-85
2024/02/14 12:04:05;;;;;;;8.30;7.43;;;10.10;97.40;;;;;;5017643;28;20244;-86
2024/02/14 12:06:34;;;;;;;7.93;7.20;;;10.10;97.40;;;;;;5035730;28;20168;-85
2024/02/14 12:09:05;;;;;;;7.50;6.80;;;10.20;97.40;;;;;;5035924;28;20225;-85
2024/02/14 12:11:33;;;;;;;7.63;6.83;;;10.20;97.40;;;;;;5035679;28;20176;-85
2024/02/14 12:14:02;;;;;;;7.90;7.03;;;10.20;97.30;;;;;;5035290;28;20175;-86
2024/02/14 12:16:28;;;;;;;7.00;6.40;;;10.20;97.40;;;;;;5035360;28;20195;-85
2024/02/14 12:19:15;;;;;;;7.03;6.33;;;10.30;97.40;;;;;;5017506;28;20200;-86
2024/02/14 12:21:43;;;;;;;6.27;5.67;;;10.30;97.40;;;;;;5018305;28;20175;-85
2024/02/14 12:24:09;;;;;;;6.00;5.40;;;10.30;97.40;;;;;;5035128;28;20200;-84
2024/02/14 12:26:39;;;;;;;8.07;6.17;;;10.30;97.40;;;;;;5035647;28;20173;-85
2024/02/14 12:29:06;;;;;;;6.37;5.87;;;10.30;97.30;;;;;;5035083;28;20196;-85
2024/02/14 12:31:32;;;;;;;6.73;6.13;;;10.30;97.40;;;;;;5035121;28;20173;-85
2024/02/14 12:33:59;;;;;;;6.37;5.80;;;10.40;97.40;;;;;;5017321;28;20188;-86